sensor_id;sensor_type;location;lat;lon;timestamp;P1;durP1;ratioP1;P2;durP2;ratioP2
82038;SDS011;71610;42.628;23.378;2024-01-07T00:00:18;3.25;;;2.38;;
82038;SDS011;71610;42.628;23.378;2024-01-07T00:02:44;2.45;;;2.25;;
82038;SDS011;71610;42.628;23.378;2024-01-07T00:05:09;3.75;;;2.50;;
82038;SDS011;71610;42.628;23.378;2024-01-07T00:07:35;2.85;;;2.55;;
82038;SDS011;71610;42.628;23.378;2024-01-07T00:10:01;2.53;;;2.33;;
82038;SDS011;71610;42.628;23.378;2024-01-07T00:12:27;2.47;;;2.28;;
82038;SDS011;71610;42.628;23.378;2024-01-07T00:14:52;2.60;;;2.40;;
82038;SDS011;71610;42.628;23.378;2024-01-07T00:17:18;3.67;;;2.63;;
82038;SDS011;71610;42.628;23.378;2024-01-07T00:19:44;2.75;;;2.47;;
82038;SDS011;71610;42.628;23.378;2024-01-07T00:22:10;2.97;;;2.60;;
82038;SDS011;71610;42.628;23.378;2024-01-07T00:24:35;2.38;;;2.17;;
82038;SDS011;71610;42.628;23.378;2024-01-07T00:27:01;2.45;;;2.25;;
82038;SDS011;71610;42.628;23.378;2024-01-07T00:29:27;3.60;;;2.47;;
82038;SDS011;71610;42.628;23.378;2024-01-07T00:31:53;2.65;;;2.45;;
82038;SDS011;71610;42.628;23.378;2024-01-07T00:34:19;2.65;;;2.22;;
82038;SDS011;71610;42.628;23.378;2024-01-07T00:36:44;2.70;;;2.45;;
82038;SDS011;71610;42.628;23.378;2024-01-07T00:39:10;3.03;;;2.50;;
82038;SDS011;71610;42.628;23.378;2024-01-07T00:41:36;2.33;;;2.10;;
82038;SDS011;71610;42.628;23.378;2024-01-07T00:44:02;3.05;;;2.50;;
82038;SDS011;71610;42.628;23.378;2024-01-07T00:46:27;2.72;;;2.33;;
82038;SDS011;71610;42.628;23.378;2024-01-07T00:48:53;2.40;;;2.20;;
82038;SDS011;71610;42.628;23.378;2024-01-07T00:51:19;2.63;;;2.40;;
82038;SDS011;71610;42.628;23.378;2024-01-07T00:53:44;5.07;;;2.42;;
82038;SDS011;71610;42.628;23.378;2024-01-07T00:56:10;2.13;;;1.98;;
82038;SDS011;71610;42.628;23.378;2024-01-07T00:58:36;2.28;;;2.08;;
82038;SDS011;71610;42.628;23.378;2024-01-07T01:01:02;2.75;;;2.47;;
82038;SDS011;71610;42.628;23.378;2024-01-07T01:03:28;4.63;;;2.67;;
82038;SDS011;71610;42.628;23.378;2024-01-07T01:05:54;2.55;;;2.30;;
82038;SDS011;71610;42.628;23.378;2024-01-07T01:08:20;2.42;;;2.10;;
82038;SDS011;71610;42.628;23.378;2024-01-07T01:10:45;2.33;;;2.13;;
82038;SDS011;71610;42.628;23.378;2024-01-07T01:13:11;2.63;;;2.33;;
82038;SDS011;71610;42.628;23.378;2024-01-07T01:15:37;2.50;;;2.30;;
82038;SDS011;71610;42.628;23.378;2024-01-07T01:18:03;3.08;;;2.38;;
82038;SDS011;71610;42.628;23.378;2024-01-07T01:20:29;3.17;;;2.17;;
82038;SDS011;71610;42.628;23.378;2024-01-07T01:22:54;2.78;;;2.53;;
82038;SDS011;71610;42.628;23.378;2024-01-07T01:25:20;2.50;;;2.30;;
82038;SDS011;71610;42.628;23.378;2024-01-07T01:27:46;2.30;;;2.10;;
82038;SDS011;71610;42.628;23.378;2024-01-07T01:30:12;2.40;;;2.20;;
82038;SDS011;71610;42.628;23.378;2024-01-07T01:32:38;2.63;;;2.40;;
82038;SDS011;71610;42.628;23.378;2024-01-07T01:35:05;2.40;;;2.20;;
82038;SDS011;71610;42.628;23.378;2024-01-07T01:37:31;2.30;;;2.10;;
82038;SDS011;71610;42.628;23.378;2024-01-07T01:39:59;2.40;;;2.20;;
82038;SDS011;71610;42.628;23.378;2024-01-07T01:42:24;2.25;;;2.08;;
82038;SDS011;71610;42.628;23.378;2024-01-07T01:44:50;2.80;;;2.60;;
82038;SDS011;71610;42.628;23.378;2024-01-07T01:47:17;2.58;;;2.38;;
82038;SDS011;71610;42.628;23.378;2024-01-07T01:49:43;2.90;;;2.60;;
82038;SDS011;71610;42.628;23.378;2024-01-07T01:52:10;2.50;;;2.30;;
82038;SDS011;71610;42.628;23.378;2024-01-07T01:54:37;2.75;;;2.30;;
82038;SDS011;71610;42.628;23.378;2024-01-07T01:57:04;2.50;;;2.30;;
82038;SDS011;71610;42.628;23.378;2024-01-07T01:59:30;2.30;;;2.10;;
82038;SDS011;71610;42.628;23.378;2024-01-07T02:01:58;3.25;;;2.17;;
82038;SDS011;71610;42.628;23.378;2024-01-07T02:04:25;2.85;;;2.30;;
82038;SDS011;71610;42.628;23.378;2024-01-07T02:06:51;2.53;;;2.33;;
82038;SDS011;71610;42.628;23.378;2024-01-07T02:09:17;2.75;;;2.40;;
82038;SDS011;71610;42.628;23.378;2024-01-07T02:11:42;2.60;;;2.40;;
82038;SDS011;71610;42.628;23.378;2024-01-07T02:14:08;2.72;;;2.20;;
82038;SDS011;71610;42.628;23.378;2024-01-07T02:16:34;3.03;;;2.53;;
82038;SDS011;71610;42.628;23.378;2024-01-07T02:18:59;2.97;;;2.67;;
82038;SDS011;71610;42.628;23.378;2024-01-07T02:21:25;2.17;;;1.98;;
82038;SDS011;71610;42.628;23.378;2024-01-07T02:23:51;2.35;;;2.05;;
82038;SDS011;71610;42.628;23.378;2024-01-07T02:26:17;2.85;;;2.30;;
82038;SDS011;71610;42.628;23.378;2024-01-07T02:28:43;2.72;;;2.30;;
82038;SDS011;71610;42.628;23.378;2024-01-07T02:31:09;3.90;;;2.40;;
82038;SDS011;71610;42.628;23.378;2024-01-07T02:33:34;2.50;;;2.30;;
82038;SDS011;71610;42.628;23.378;2024-01-07T02:36:00;2.20;;;2.05;;
82038;SDS011;71610;42.628;23.378;2024-01-07T02:38:26;2.30;;;2.10;;
82038;SDS011;71610;42.628;23.378;2024-01-07T02:40:52;2.40;;;2.20;;
82038;SDS011;71610;42.628;23.378;2024-01-07T02:43:17;2.40;;;2.20;;
82038;SDS011;71610;42.628;23.378;2024-01-07T02:45:43;2.50;;;2.28;;
82038;SDS011;71610;42.628;23.378;2024-01-07T02:48:09;2.20;;;2.00;;
82038;SDS011;71610;42.628;23.378;2024-01-07T02:50:35;2.60;;;2.40;;
82038;SDS011;71610;42.628;23.378;2024-01-07T02:53:00;2.45;;;2.00;;
82038;SDS011;71610;42.628;23.378;2024-01-07T02:55:26;2.47;;;2.20;;
82038;SDS011;71610;42.628;23.378;2024-01-07T02:57:52;2.20;;;2.00;;
82038;SDS011;71610;42.628;23.378;2024-01-07T03:00:17;2.72;;;2.22;;
82038;SDS011;71610;42.628;23.378;2024-01-07T03:02:43;1.92;;;1.83;;
82038;SDS011;71610;42.628;23.378;2024-01-07T03:05:09;2.35;;;2.15;;
82038;SDS011;71610;42.628;23.378;2024-01-07T03:07:36;2.22;;;1.80;;
82038;SDS011;71610;42.628;23.378;2024-01-07T03:10:03;2.30;;;2.10;;
82038;SDS011;71610;42.628;23.378;2024-01-07T03:12:30;2.72;;;2.13;;
82038;SDS011;71610;42.628;23.378;2024-01-07T03:14:56;2.53;;;2.22;;
82038;SDS011;71610;42.628;23.378;2024-01-07T03:17:21;2.58;;;2.10;;
82038;SDS011;71610;42.628;23.378;2024-01-07T03:19:49;2.22;;;2.03;;
82038;SDS011;71610;42.628;23.378;2024-01-07T03:22:14;2.30;;;2.10;;
82038;SDS011;71610;42.628;23.378;2024-01-07T03:24:41;2.25;;;2.05;;
82038;SDS011;71610;42.628;23.378;2024-01-07T03:27:07;2.30;;;2.10;;
82038;SDS011;71610;42.628;23.378;2024-01-07T03:29:33;2.33;;;2.13;;
82038;SDS011;71610;42.628;23.378;2024-01-07T03:31:58;2.33;;;2.10;;
82038;SDS011;71610;42.628;23.378;2024-01-07T03:34:24;2.28;;;2.08;;
82038;SDS011;71610;42.628;23.378;2024-01-07T03:36:50;2.47;;;2.10;;
82038;SDS011;71610;42.628;23.378;2024-01-07T03:39:16;2.15;;;2.00;;
82038;SDS011;71610;42.628;23.378;2024-01-07T03:41:41;2.63;;;2.00;;
82038;SDS011;71610;42.628;23.378;2024-01-07T03:44:08;2.53;;;2.30;;
82038;SDS011;71610;42.628;23.378;2024-01-07T03:46:33;1.90;;;1.80;;
82038;SDS011;71610;42.628;23.378;2024-01-07T03:48:59;2.13;;;1.90;;
82038;SDS011;71610;42.628;23.378;2024-01-07T03:51:25;2.17;;;2.00;;
82038;SDS011;71610;42.628;23.378;2024-01-07T03:53:51;2.08;;;1.98;;
82038;SDS011;71610;42.628;23.378;2024-01-07T03:56:18;2.30;;;1.90;;
82038;SDS011;71610;42.628;23.378;2024-01-07T03:58:44;2.10;;;1.90;;
82038;SDS011;71610;42.628;23.378;2024-01-07T04:01:09;2.08;;;1.90;;
82038;SDS011;71610;42.628;23.378;2024-01-07T04:03:40;2.65;;;2.45;;
82038;SDS011;71610;42.628;23.378;2024-01-07T04:06:06;2.45;;;1.90;;
82038;SDS011;71610;42.628;23.378;2024-01-07T04:08:33;2.28;;;2.08;;
82038;SDS011;71610;42.628;23.378;2024-01-07T04:11:01;2.42;;;1.95;;
82038;SDS011;71610;42.628;23.378;2024-01-07T04:13:27;2.83;;;2.10;;
82038;SDS011;71610;42.628;23.378;2024-01-07T04:15:53;2.17;;;1.98;;
82038;SDS011;71610;42.628;23.378;2024-01-07T04:18:18;2.20;;;2.00;;
82038;SDS011;71610;42.628;23.378;2024-01-07T04:20:44;2.13;;;1.92;;
82038;SDS011;71610;42.628;23.378;2024-01-07T04:23:10;2.25;;;1.95;;
82038;SDS011;71610;42.628;23.378;2024-01-07T04:25:35;2.22;;;2.03;;
82038;SDS011;71610;42.628;23.378;2024-01-07T04:28:01;2.72;;;2.15;;
82038;SDS011;71610;42.628;23.378;2024-01-07T04:30:28;2.45;;;2.17;;
82038;SDS011;71610;42.628;23.378;2024-01-07T04:32:53;2.20;;;2.03;;
82038;SDS011;71610;42.628;23.378;2024-01-07T04:35:19;2.33;;;2.00;;
82038;SDS011;71610;42.628;23.378;2024-01-07T04:37:45;2.20;;;2.00;;
82038;SDS011;71610;42.628;23.378;2024-01-07T04:40:10;2.42;;;1.90;;
82038;SDS011;71610;42.628;23.378;2024-01-07T04:42:37;2.00;;;1.80;;
82038;SDS011;71610;42.628;23.378;2024-01-07T04:45:02;2.50;;;2.30;;
82038;SDS011;71610;42.628;23.378;2024-01-07T04:47:29;1.75;;;1.65;;
82038;SDS011;71610;42.628;23.378;2024-01-07T04:49:57;2.35;;;2.15;;
82038;SDS011;71610;42.628;23.378;2024-01-07T04:52:23;2.22;;;1.90;;
82038;SDS011;71610;42.628;23.378;2024-01-07T04:54:50;2.38;;;2.10;;
82038;SDS011;71610;42.628;23.378;2024-01-07T04:57:16;1.98;;;1.83;;
82038;SDS011;71610;42.628;23.378;2024-01-07T04:59:42;2.28;;;2.08;;
82038;SDS011;71610;42.628;23.378;2024-01-07T05:02:08;2.47;;;2.05;;
82038;SDS011;71610;42.628;23.378;2024-01-07T05:04:35;1.80;;;1.70;;
82038;SDS011;71610;42.628;23.378;2024-01-07T05:07:00;2.25;;;2.00;;
82038;SDS011;71610;42.628;23.378;2024-01-07T05:09:26;2.53;;;2.00;;
82038;SDS011;71610;42.628;23.378;2024-01-07T05:11:52;2.70;;;2.13;;
82038;SDS011;71610;42.628;23.378;2024-01-07T05:14:18;2.08;;;1.88;;
82038;SDS011;71610;42.628;23.378;2024-01-07T05:16:43;2.10;;;1.83;;
82038;SDS011;71610;42.628;23.378;2024-01-07T05:19:09;2.25;;;2.05;;
82038;SDS011;71610;42.628;23.378;2024-01-07T05:21:35;2.20;;;2.00;;
82038;SDS011;71610;42.628;23.378;2024-01-07T05:24:00;2.22;;;1.92;;
82038;SDS011;71610;42.628;23.378;2024-01-07T05:26:26;2.20;;;2.05;;
82038;SDS011;71610;42.628;23.378;2024-01-07T05:28:52;2.03;;;1.83;;
82038;SDS011;71610;42.628;23.378;2024-01-07T05:31:18;2.00;;;1.85;;
82038;SDS011;71610;42.628;23.378;2024-01-07T05:33:44;2.08;;;1.90;;
82038;SDS011;71610;42.628;23.378;2024-01-07T05:36:13;2.88;;;2.00;;
82038;SDS011;71610;42.628;23.378;2024-01-07T05:38:42;1.88;;;1.77;;
82038;SDS011;71610;42.628;23.378;2024-01-07T05:41:08;2.20;;;2.00;;
82038;SDS011;71610;42.628;23.378;2024-01-07T05:46:01;1.98;;;1.80;;
82038;SDS011;71610;42.628;23.378;2024-01-07T05:48:28;2.20;;;2.00;;
82038;SDS011;71610;42.628;23.378;2024-01-07T05:50:54;1.90;;;1.80;;
82038;SDS011;71610;42.628;23.378;2024-01-07T05:53:20;3.10;;;1.90;;
82038;SDS011;71610;42.628;23.378;2024-01-07T05:55:45;2.08;;;1.88;;
82038;SDS011;71610;42.628;23.378;2024-01-07T05:58:11;2.67;;;2.00;;
82038;SDS011;71610;42.628;23.378;2024-01-07T06:00:37;2.35;;;1.98;;
82038;SDS011;71610;42.628;23.378;2024-01-07T06:03:03;2.70;;;1.90;;
82038;SDS011;71610;42.628;23.378;2024-01-07T06:05:29;2.03;;;1.77;;
82038;SDS011;71610;42.628;23.378;2024-01-07T06:07:56;2.20;;;2.00;;
82038;SDS011;71610;42.628;23.378;2024-01-07T06:10:21;2.17;;;1.98;;
82038;SDS011;71610;42.628;23.378;2024-01-07T06:12:47;2.60;;;2.00;;
82038;SDS011;71610;42.628;23.378;2024-01-07T06:15:13;2.40;;;1.90;;
82038;SDS011;71610;42.628;23.378;2024-01-07T06:17:38;2.58;;;2.13;;
82038;SDS011;71610;42.628;23.378;2024-01-07T06:20:04;2.63;;;2.08;;
82038;SDS011;71610;42.628;23.378;2024-01-07T06:22:31;2.45;;;2.22;;
82038;SDS011;71610;42.628;23.378;2024-01-07T06:24:56;2.38;;;2.00;;
82038;SDS011;71610;42.628;23.378;2024-01-07T06:27:22;3.13;;;2.13;;
82038;SDS011;71610;42.628;23.378;2024-01-07T06:29:48;2.85;;;2.05;;
82038;SDS011;71610;42.628;23.378;2024-01-07T06:32:13;2.28;;;1.90;;
82038;SDS011;71610;42.628;23.378;2024-01-07T06:34:39;2.20;;;2.00;;
82038;SDS011;71610;42.628;23.378;2024-01-07T06:37:05;2.47;;;2.28;;
82038;SDS011;71610;42.628;23.378;2024-01-07T06:39:32;2.08;;;1.98;;
82038;SDS011;71610;42.628;23.378;2024-01-07T06:41:59;2.08;;;1.88;;
82038;SDS011;71610;42.628;23.378;2024-01-07T06:44:25;2.63;;;2.40;;
82038;SDS011;71610;42.628;23.378;2024-01-07T06:46:51;2.53;;;2.33;;
82038;SDS011;71610;42.628;23.378;2024-01-07T06:49:16;2.90;;;2.45;;
82038;SDS011;71610;42.628;23.378;2024-01-07T06:51:42;2.20;;;2.00;;
82038;SDS011;71610;42.628;23.378;2024-01-07T06:54:08;3.97;;;2.20;;
82038;SDS011;71610;42.628;23.378;2024-01-07T06:56:34;2.70;;;2.17;;
82038;SDS011;71610;42.628;23.378;2024-01-07T06:59:00;2.33;;;2.13;;
82038;SDS011;71610;42.628;23.378;2024-01-07T07:01:25;2.40;;;2.20;;
82038;SDS011;71610;42.628;23.378;2024-01-07T07:03:51;2.47;;;2.28;;
82038;SDS011;71610;42.628;23.378;2024-01-07T07:06:17;2.42;;;2.22;;
82038;SDS011;71610;42.628;23.378;2024-01-07T07:08:43;2.53;;;2.10;;
82038;SDS011;71610;42.628;23.378;2024-01-07T07:11:08;2.40;;;2.20;;
82038;SDS011;71610;42.628;23.378;2024-01-07T07:13:34;2.47;;;2.25;;
82038;SDS011;71610;42.628;23.378;2024-01-07T07:16:00;2.97;;;2.20;;
82038;SDS011;71610;42.628;23.378;2024-01-07T07:18:26;2.42;;;2.22;;
82038;SDS011;71610;42.628;23.378;2024-01-07T07:20:52;3.25;;;2.55;;
82038;SDS011;71610;42.628;23.378;2024-01-07T07:23:17;2.50;;;2.30;;
82038;SDS011;71610;42.628;23.378;2024-01-07T07:25:43;2.05;;;1.90;;
82038;SDS011;71610;42.628;23.378;2024-01-07T07:28:09;2.28;;;2.08;;
82038;SDS011;71610;42.628;23.378;2024-01-07T07:30:35;2.22;;;2.03;;
82038;SDS011;71610;42.628;23.378;2024-01-07T07:33:01;4.28;;;2.10;;
82038;SDS011;71610;42.628;23.378;2024-01-07T07:35:28;2.42;;;1.92;;
82038;SDS011;71610;42.628;23.378;2024-01-07T07:37:53;2.85;;;2.08;;
82038;SDS011;71610;42.628;23.378;2024-01-07T07:40:20;2.50;;;2.25;;
82038;SDS011;71610;42.628;23.378;2024-01-07T07:42:46;2.33;;;2.13;;
82038;SDS011;71610;42.628;23.378;2024-01-07T07:45:11;3.05;;;2.03;;
82038;SDS011;71610;42.628;23.378;2024-01-07T07:47:37;2.17;;;2.00;;
82038;SDS011;71610;42.628;23.378;2024-01-07T07:50:06;2.05;;;1.92;;
82038;SDS011;71610;42.628;23.378;2024-01-07T07:52:32;2.03;;;1.92;;
82038;SDS011;71610;42.628;23.378;2024-01-07T07:54:58;2.33;;;2.13;;
82038;SDS011;71610;42.628;23.378;2024-01-07T07:57:24;2.78;;;2.15;;
82038;SDS011;71610;42.628;23.378;2024-01-07T07:59:50;2.03;;;1.92;;
82038;SDS011;71610;42.628;23.378;2024-01-07T08:02:16;2.30;;;2.10;;
82038;SDS011;71610;42.628;23.378;2024-01-07T08:04:42;2.05;;;1.85;;
82038;SDS011;71610;42.628;23.378;2024-01-07T08:07:08;2.15;;;1.83;;
82038;SDS011;71610;42.628;23.378;2024-01-07T08:09:34;2.03;;;1.90;;
82038;SDS011;71610;42.628;23.378;2024-01-07T08:12:04;2.22;;;1.90;;
82038;SDS011;71610;42.628;23.378;2024-01-07T08:14:30;2.63;;;2.20;;
82038;SDS011;71610;42.628;23.378;2024-01-07T08:16:57;1.98;;;1.80;;
82038;SDS011;71610;42.628;23.378;2024-01-07T08:19:23;2.63;;;1.92;;
82038;SDS011;71610;42.628;23.378;2024-01-07T08:21:49;2.45;;;2.20;;
82038;SDS011;71610;42.628;23.378;2024-01-07T08:24:14;1.90;;;1.70;;
82038;SDS011;71610;42.628;23.378;2024-01-07T08:26:40;1.70;;;1.60;;
82038;SDS011;71610;42.628;23.378;2024-01-07T08:29:06;2.22;;;2.03;;
82038;SDS011;71610;42.628;23.378;2024-01-07T08:31:32;3.42;;;2.40;;
82038;SDS011;71610;42.628;23.378;2024-01-07T08:33:58;2.60;;;2.10;;
82038;SDS011;71610;42.628;23.378;2024-01-07T08:36:23;2.38;;;2.10;;
82038;SDS011;71610;42.628;23.378;2024-01-07T08:38:49;2.78;;;2.15;;
82038;SDS011;71610;42.628;23.378;2024-01-07T08:41:15;2.25;;;2.05;;
82038;SDS011;71610;42.628;23.378;2024-01-07T08:43:41;2.17;;;2.00;;
82038;SDS011;71610;42.628;23.378;2024-01-07T08:46:07;2.20;;;2.00;;
82038;SDS011;71610;42.628;23.378;2024-01-07T08:48:33;2.33;;;2.00;;
82038;SDS011;71610;42.628;23.378;2024-01-07T08:50:58;2.42;;;2.10;;
82038;SDS011;71610;42.628;23.378;2024-01-07T08:53:25;2.20;;;2.00;;
82038;SDS011;71610;42.628;23.378;2024-01-07T08:55:51;2.28;;;2.08;;
82038;SDS011;71610;42.628;23.378;2024-01-07T08:58:16;2.28;;;2.10;;
82038;SDS011;71610;42.628;23.378;2024-01-07T09:00:42;2.65;;;2.10;;
82038;SDS011;71610;42.628;23.378;2024-01-07T09:03:09;2.03;;;1.83;;
82038;SDS011;71610;42.628;23.378;2024-01-07T09:05:35;1.98;;;1.88;;
82038;SDS011;71610;42.628;23.378;2024-01-07T09:08:01;2.30;;;1.92;;
82038;SDS011;71610;42.628;23.378;2024-01-07T09:10:27;2.40;;;2.00;;
82038;SDS011;71610;42.628;23.378;2024-01-07T09:12:53;2.30;;;2.10;;
82038;SDS011;71610;42.628;23.378;2024-01-07T09:15:19;2.20;;;2.00;;
82038;SDS011;71610;42.628;23.378;2024-01-07T09:17:45;2.08;;;1.98;;
82038;SDS011;71610;42.628;23.378;2024-01-07T09:20:12;2.20;;;2.00;;
82038;SDS011;71610;42.628;23.378;2024-01-07T09:22:37;1.83;;;1.73;;
82038;SDS011;71610;42.628;23.378;2024-01-07T09:25:04;2.80;;;1.95;;
82038;SDS011;71610;42.628;23.378;2024-01-07T09:27:31;2.25;;;2.05;;
82038;SDS011;71610;42.628;23.378;2024-01-07T09:29:57;1.83;;;1.73;;
82038;SDS011;71610;42.628;23.378;2024-01-07T09:32:23;2.10;;;1.98;;
82038;SDS011;71610;42.628;23.378;2024-01-07T09:34:49;2.00;;;1.85;;
82038;SDS011;71610;42.628;23.378;2024-01-07T09:37:15;2.13;;;1.92;;
82038;SDS011;71610;42.628;23.378;2024-01-07T09:39:41;2.13;;;1.92;;
82038;SDS011;71610;42.628;23.378;2024-01-07T09:42:11;1.98;;;1.80;;
82038;SDS011;71610;42.628;23.378;2024-01-07T09:44:41;2.20;;;2.00;;
82038;SDS011;71610;42.628;23.378;2024-01-07T09:47:13;2.50;;;2.10;;
82038;SDS011;71610;42.628;23.378;2024-01-07T09:49:40;1.90;;;1.75;;
82038;SDS011;71610;42.628;23.378;2024-01-07T09:52:07;2.25;;;2.05;;
82038;SDS011;71610;42.628;23.378;2024-01-07T09:54:37;2.50;;;2.30;;
82038;SDS011;71610;42.628;23.378;2024-01-07T09:57:05;2.38;;;1.83;;
82038;SDS011;71610;42.628;23.378;2024-01-07T09:59:31;2.22;;;2.03;;
82038;SDS011;71610;42.628;23.378;2024-01-07T10:01:58;2.00;;;1.90;;
82038;SDS011;71610;42.628;23.378;2024-01-07T10:04:24;2.40;;;1.98;;
82038;SDS011;71610;42.628;23.378;2024-01-07T10:06:50;1.90;;;1.75;;
82038;SDS011;71610;42.628;23.378;2024-01-07T10:09:19;2.30;;;2.10;;
82038;SDS011;71610;42.628;23.378;2024-01-07T10:11:46;2.78;;;2.20;;
82038;SDS011;71610;42.628;23.378;2024-01-07T10:14:12;2.22;;;2.03;;
82038;SDS011;71610;42.628;23.378;2024-01-07T10:16:38;2.10;;;1.90;;
82038;SDS011;71610;42.628;23.378;2024-01-07T10:19:04;1.85;;;1.70;;
82038;SDS011;71610;42.628;23.378;2024-01-07T10:21:32;2.17;;;1.98;;
82038;SDS011;71610;42.628;23.378;2024-01-07T10:24:08;2.60;;;2.40;;
82038;SDS011;71610;42.628;23.378;2024-01-07T10:26:35;2.53;;;2.00;;
82038;SDS011;71610;42.628;23.378;2024-01-07T10:29:06;1.90;;;1.80;;
82038;SDS011;71610;42.628;23.378;2024-01-07T10:31:33;3.03;;;1.85;;
82038;SDS011;71610;42.628;23.378;2024-01-07T10:33:59;2.10;;;1.90;;
82038;SDS011;71610;42.628;23.378;2024-01-07T10:36:25;2.10;;;1.90;;
82038;SDS011;71610;42.628;23.378;2024-01-07T10:38:51;2.50;;;1.80;;
82038;SDS011;71610;42.628;23.378;2024-01-07T10:41:20;1.77;;;1.67;;
82038;SDS011;71610;42.628;23.378;2024-01-07T10:43:47;2.13;;;1.92;;
82038;SDS011;71610;42.628;23.378;2024-01-07T10:46:14;1.95;;;1.83;;
82038;SDS011;71610;42.628;23.378;2024-01-07T10:48:49;1.95;;;1.80;;
82038;SDS011;71610;42.628;23.378;2024-01-07T10:51:29;2.08;;;1.98;;
82038;SDS011;71610;42.628;23.378;2024-01-07T10:53:59;2.65;;;1.92;;
82038;SDS011;71610;42.628;23.378;2024-01-07T10:56:30;1.90;;;1.80;;
82038;SDS011;71610;42.628;23.378;2024-01-07T10:59:04;1.67;;;1.58;;
82038;SDS011;71610;42.628;23.378;2024-01-07T11:01:29;2.25;;;2.10;;
82038;SDS011;71610;42.628;23.378;2024-01-07T11:03:57;2.20;;;2.00;;
82038;SDS011;71610;42.628;23.378;2024-01-07T11:06:51;1.90;;;1.80;;
82038;SDS011;71610;42.628;23.378;2024-01-07T11:11:51;2.05;;;1.80;;
82038;SDS011;71610;42.628;23.378;2024-01-07T11:14:36;1.77;;;1.60;;
82038;SDS011;71610;42.628;23.378;2024-01-07T11:17:03;2.95;;;2.15;;
82038;SDS011;71610;42.628;23.378;2024-01-07T11:19:29;3.00;;;1.75;;
82038;SDS011;71610;42.628;23.378;2024-01-07T11:22:28;1.85;;;1.75;;
82038;SDS011;71610;42.628;23.378;2024-01-07T11:24:54;2.28;;;2.00;;
82038;SDS011;71610;42.628;23.378;2024-01-07T11:27:25;2.22;;;1.88;;
82038;SDS011;71610;42.628;23.378;2024-01-07T11:30:26;2.23;;;2.03;;
82038;SDS011;71610;42.628;23.378;2024-01-07T11:32:45;2.10;;;1.90;;
82038;SDS011;71610;42.628;23.378;2024-01-07T11:35:12;2.20;;;1.60;;
82038;SDS011;71610;42.628;23.378;2024-01-07T11:37:38;2.28;;;1.70;;
82038;SDS011;71610;42.628;23.378;2024-01-07T11:40:05;2.10;;;1.90;;
82038;SDS011;71610;42.628;23.378;2024-01-07T11:42:31;1.95;;;1.70;;
82038;SDS011;71610;42.628;23.378;2024-01-07T11:44:57;1.92;;;1.70;;
82038;SDS011;71610;42.628;23.378;2024-01-07T11:47:24;2.00;;;1.80;;
82038;SDS011;71610;42.628;23.378;2024-01-07T11:49:52;1.70;;;1.60;;
82038;SDS011;71610;42.628;23.378;2024-01-07T11:52:19;2.05;;;1.85;;
82038;SDS011;71610;42.628;23.378;2024-01-07T11:54:46;1.83;;;1.73;;
82038;SDS011;71610;42.628;23.378;2024-01-07T11:57:13;2.13;;;1.73;;
82038;SDS011;71610;42.628;23.378;2024-01-07T11:59:39;2.45;;;1.92;;
82038;SDS011;71610;42.628;23.378;2024-01-07T12:02:05;1.90;;;1.80;;
82038;SDS011;71610;42.628;23.378;2024-01-07T12:04:31;1.70;;;1.60;;
82038;SDS011;71610;42.628;23.378;2024-01-07T12:06:57;2.20;;;1.63;;
82038;SDS011;71610;42.628;23.378;2024-01-07T12:09:23;1.92;;;1.83;;
82038;SDS011;71610;42.628;23.378;2024-01-07T12:11:49;1.95;;;1.75;;
82038;SDS011;71610;42.628;23.378;2024-01-07T12:14:15;2.30;;;1.98;;
82038;SDS011;71610;42.628;23.378;2024-01-07T12:16:42;2.38;;;2.15;;
82038;SDS011;71610;42.628;23.378;2024-01-07T12:19:08;2.28;;;2.08;;
82038;SDS011;71610;42.628;23.378;2024-01-07T12:21:34;2.25;;;1.83;;
82038;SDS011;71610;42.628;23.378;2024-01-07T12:24:00;1.77;;;1.65;;
82038;SDS011;71610;42.628;23.378;2024-01-07T12:26:27;1.70;;;1.60;;
82038;SDS011;71610;42.628;23.378;2024-01-07T12:28:53;1.80;;;1.70;;
82038;SDS011;71610;42.628;23.378;2024-01-07T12:31:21;1.95;;;1.85;;
82038;SDS011;71610;42.628;23.378;2024-01-07T12:33:47;1.65;;;1.55;;
82038;SDS011;71610;42.628;23.378;2024-01-07T12:36:13;2.45;;;1.70;;
82038;SDS011;71610;42.628;23.378;2024-01-07T12:38:40;1.67;;;1.58;;
82038;SDS011;71610;42.628;23.378;2024-01-07T12:41:06;2.38;;;1.70;;
82038;SDS011;71610;42.628;23.378;2024-01-07T12:43:32;2.25;;;1.90;;
82038;SDS011;71610;42.628;23.378;2024-01-07T12:45:58;1.75;;;1.65;;
82038;SDS011;71610;42.628;23.378;2024-01-07T12:48:29;3.47;;;1.77;;
82038;SDS011;71610;42.628;23.378;2024-01-07T12:50:55;1.70;;;1.60;;
82038;SDS011;71610;42.628;23.378;2024-01-07T12:53:21;2.67;;;1.80;;
82038;SDS011;71610;42.628;23.378;2024-01-07T12:55:47;1.85;;;1.63;;
82038;SDS011;71610;42.628;23.378;2024-01-07T12:58:13;1.63;;;1.52;;
82038;SDS011;71610;42.628;23.378;2024-01-07T13:00:39;2.00;;;1.90;;
82038;SDS011;71610;42.628;23.378;2024-01-07T13:03:06;1.60;;;1.50;;
82038;SDS011;71610;42.628;23.378;2024-01-07T13:05:33;1.77;;;1.67;;
82038;SDS011;71610;42.628;23.378;2024-01-07T13:07:59;2.00;;;1.80;;
82038;SDS011;71610;42.628;23.378;2024-01-07T13:10:25;1.70;;;1.60;;
82038;SDS011;71610;42.628;23.378;2024-01-07T13:12:52;1.80;;;1.70;;
82038;SDS011;71610;42.628;23.378;2024-01-07T13:15:18;2.05;;;1.85;;
82038;SDS011;71610;42.628;23.378;2024-01-07T13:17:43;3.47;;;1.90;;
82038;SDS011;71610;42.628;23.378;2024-01-07T13:20:09;1.70;;;1.60;;
82038;SDS011;71610;42.628;23.378;2024-01-07T13:22:40;2.78;;;1.80;;
82038;SDS011;71610;42.628;23.378;2024-01-07T13:25:06;1.90;;;1.80;;
82038;SDS011;71610;42.628;23.378;2024-01-07T13:27:32;1.80;;;1.70;;
82038;SDS011;71610;42.628;23.378;2024-01-07T13:29:58;1.98;;;1.77;;
82038;SDS011;71610;42.628;23.378;2024-01-07T13:32:24;1.90;;;1.80;;
82038;SDS011;71610;42.628;23.378;2024-01-07T13:34:50;1.88;;;1.77;;
82038;SDS011;71610;42.628;23.378;2024-01-07T13:37:15;1.95;;;1.73;;
82038;SDS011;71610;42.628;23.378;2024-01-07T13:39:41;1.67;;;1.58;;
82038;SDS011;71610;42.628;23.378;2024-01-07T13:42:07;1.60;;;1.50;;
82038;SDS011;71610;42.628;23.378;2024-01-07T13:44:33;1.58;;;1.48;;
82038;SDS011;71610;42.628;23.378;2024-01-07T13:46:59;3.25;;;1.55;;
82038;SDS011;71610;42.628;23.378;2024-01-07T13:49:30;1.70;;;1.60;;
82038;SDS011;71610;42.628;23.378;2024-01-07T13:51:55;1.90;;;1.70;;
82038;SDS011;71610;42.628;23.378;2024-01-07T13:54:21;1.73;;;1.63;;
82038;SDS011;71610;42.628;23.378;2024-01-07T13:56:47;2.28;;;1.80;;
82038;SDS011;71610;42.628;23.378;2024-01-07T13:59:13;1.95;;;1.75;;
82038;SDS011;71610;42.628;23.378;2024-01-07T14:01:38;1.58;;;1.48;;
82038;SDS011;71610;42.628;23.378;2024-01-07T14:04:04;1.70;;;1.60;;
82038;SDS011;71610;42.628;23.378;2024-01-07T14:06:30;2.05;;;1.83;;
82038;SDS011;71610;42.628;23.378;2024-01-07T14:08:56;2.70;;;1.80;;
82038;SDS011;71610;42.628;23.378;2024-01-07T14:11:23;1.88;;;1.77;;
82038;SDS011;71610;42.628;23.378;2024-01-07T14:13:48;1.50;;;1.40;;
82038;SDS011;71610;42.628;23.378;2024-01-07T14:16:14;1.60;;;1.50;;
82038;SDS011;71610;42.628;23.378;2024-01-07T14:18:40;2.20;;;1.70;;
82038;SDS011;71610;42.628;23.378;2024-01-07T14:21:06;1.98;;;1.50;;
82038;SDS011;71610;42.628;23.378;2024-01-07T14:23:35;2.08;;;1.92;;
82038;SDS011;71610;42.628;23.378;2024-01-07T14:26:01;1.70;;;1.60;;
82038;SDS011;71610;42.628;23.378;2024-01-07T14:28:27;1.95;;;1.80;;
82038;SDS011;71610;42.628;23.378;2024-01-07T14:30:53;1.40;;;1.30;;
82038;SDS011;71610;42.628;23.378;2024-01-07T14:33:19;1.70;;;1.50;;